Time;durP1;ratioP1;P1;durP2;ratioP2;P2;SDS_P1;SDS_P2;PMS_P1;PMS_P2;Temp;Humidity;BMP_temperature;BMP_pressure;BME280_temperature;BME280_humidity;BME280_pressure;Samples;Min_cycle;Max_cycle;Signal;HPM_P1;HPM_P2
2021/12/14 00:00:48;;;;;;;7.82;4.10;;;;;;;3.58;84.77;97747.91;4995605;28;20058;-75
2021/12/14 00:03:19;;;;;;;5.68;3.75;;;;;;;3.59;84.93;97751.34;4995517;28;20046;-76
2021/12/14 00:05:47;;;;;;;7.15;4.25;;;;;;;3.61;84.77;97752.88;4995103;28;20104;-76
2021/12/14 00:08:16;;;;;;;6.90;4.30;;;;;;;3.62;84.65;97744.19;4994929;28;20057;-76
2021/12/14 00:13:41;;;;;;;6.43;4.25;;;;;;;3.61;84.11;97749.47;4985755;28;20058;-76
2021/12/14 00:16:10;;;;;;;7.97;3.87;;;;;;;3.57;84.48;97746.28;4994967;28;20050;-77
2021/12/14 00:18:41;;;;;;;5.80;4.00;;;;;;;3.56;84.45;97744.63;4994768;28;20276;-77
2021/12/14 00:21:18;;;;;;;4.05;2.97;;;;;;;3.53;84.12;97739.69;4995087;28;20046;-76
2021/12/14 00:26:35;;;;;;;5.18;2.90;;;;;;;3.59;84.09;97744.41;4994437;28;20492;-76
2021/12/14 00:29:04;;;;;;;5.47;3.35;;;;;;;3.62;84.06;97741.59;4994447;28;20042;-76
2021/12/14 00:31:33;;;;;;;4.18;3.15;;;;;;;3.64;84.13;97750.06;4995041;28;20050;-77
2021/12/14 00:34:05;;;;;;;5.55;3.72;;;;;;;3.67;83.91;97749.84;4995116;28;20444;-76
2021/12/14 00:36:32;;;;;;;5.88;3.53;;;;;;;3.70;83.60;97746.22;4994491;28;20408;-76
2021/12/14 00:39:00;;;;;;;4.15;3.05;;;;;;;3.70;83.69;97756.53;4994630;28;20042;-76
2021/12/14 00:41:31;;;;;;;3.97;2.85;;;;;;;3.69;83.04;97734.25;4994481;28;20142;-75
2021/12/14 00:44:00;;;;;;;4.28;3.28;;;;;;;3.69;83.35;97729.88;4994294;28;20076;-77
2021/12/14 00:46:28;;;;;;;5.10;3.13;;;;;;;3.66;83.71;97735.28;4994202;28;20050;-77
2021/12/14 00:48:56;;;;;;;4.65;3.00;;;;;;;3.66;83.65;97735.28;4994312;28;20575;-76
2021/12/14 00:51:28;;;;;;;3.03;2.25;;;;;;;3.65;83.10;97737.97;4994384;28;20100;-75
2021/12/14 00:53:57;;;;;;;3.22;2.67;;;;;;;3.64;83.32;97742.31;4994161;28;20161;-76
2021/12/14 00:56:26;;;;;;;3.45;2.60;;;;;;;3.61;83.29;97746.88;4993684;28;20054;-77
2021/12/14 00:58:53;;;;;;;3.60;2.72;;;;;;;3.55;82.95;97737.81;4994446;28;20079;-76
2021/12/14 01:01:25;;;;;;;3.28;2.35;;;;;;;3.45;82.66;97732.47;4994592;28;20061;-77
2021/12/14 01:03:57;;;;;;;3.60;2.80;;;;;;;3.38;82.99;97741.59;4993493;28;20058;-77
2021/12/14 01:06:30;;;;;;;4.15;3.13;;;;;;;3.37;82.79;97742.53;4994097;28;20054;-77
2021/12/14 01:08:58;;;;;;;3.75;2.75;;;;;;;3.37;83.40;97739.09;4993127;28;20047;-77
2021/12/14 01:11:32;;;;;;;3.55;2.80;;;;;;;3.37;83.08;97739.09;4994058;28;20424;-77
2021/12/14 01:14:06;;;;;;;3.53;2.72;;;;;;;3.32;82.99;97731.69;4994138;28;20087;-76
2021/12/14 01:16:51;;;;;;;3.65;2.60;;;;;;;3.30;82.89;97730.97;4993559;28;20046;-76
2021/12/14 01:19:25;;;;;;;2.83;2.20;;;;;;;3.26;83.07;97725.25;4993653;28;20069;-76
2021/12/14 01:22:14;;;;;;;2.83;2.28;;;;;;;3.20;83.70;97728.25;4994131;28;20057;-77
2021/12/14 01:27:43;;;;;;;2.67;2.45;;;;;;;3.19;83.08;97742.06;4982517;28;20338;-77
2021/12/14 01:30:21;;;;;;;2.97;2.25;;;;;;;3.16;83.04;97742.28;4993609;28;20345;-76
2021/12/14 01:32:50;;;;;;;3.83;3.08;;;;;;;3.13;83.20;97747.66;4993466;28;20065;-76
2021/12/14 01:35:24;;;;;;;4.22;2.50;;;;;;;3.14;84.07;97759.59;4993584;28;20054;-76
2021/12/14 01:38:05;;;;;;;3.83;2.58;;;;;;;3.20;84.61;97753.22;4993119;28;20112;-75
2021/12/14 01:40:54;;;;;;;4.50;2.50;;;;;;;3.24;83.71;97754.66;4993990;28;20062;-76
2021/12/14 01:43:28;;;;;;;2.90;2.08;;;;;;;3.23;83.20;97761.53;4993596;28;20612;-77
2021/12/14 01:45:58;;;;;;;3.30;2.20;;;;;;;3.24;83.91;97755.47;4992740;28;20054;-76
2021/12/14 01:48:26;;;;;;;3.63;2.38;;;;;;;3.28;84.05;97767.22;4992661;28;20053;-76
2021/12/14 01:50:57;;;;;;;3.05;2.10;;;;;;;3.30;83.28;97773.09;4993737;28;20057;-77
2021/12/14 01:53:27;;;;;;;2.95;2.28;;;;;;;3.34;84.00;97767.72;4993290;28;20061;-77
2021/12/14 01:55:58;;;;;;;2.50;2.00;;;;;;;3.37;83.57;97768.31;4993004;28;20058;-76
2021/12/14 01:58:34;;;;;;;3.13;2.20;;;;;;;3.39;83.88;97768.19;4993750;28;20521;-77
2021/12/14 02:01:06;;;;;;;2.10;1.80;;;;;;;3.38;83.05;97761.41;4993492;28;20061;-76
2021/12/14 02:03:39;;;;;;;2.72;1.92;;;;;;;3.35;82.66;97766.78;4994612;28;20132;-76
2021/12/14 02:06:06;;;;;;;2.50;1.98;;;;;;;3.30;82.46;97764.50;4994286;28;20046;-77
2021/12/14 02:08:37;;;;;;;3.30;2.20;;;;;;;3.28;82.77;97762.06;4994978;28;20058;-77
2021/12/14 02:11:07;;;;;;;3.35;2.85;;;;;;;3.29;82.57;97763.69;4994171;28;20054;-77
2021/12/14 02:13:37;;;;;;;2.78;2.17;;;;;;;3.29;82.47;97763.69;4994739;28;20054;-76
2021/12/14 02:16:08;;;;;;;3.38;2.30;;;;;;;3.27;82.37;97759.56;4994551;28;20057;-75
2021/12/14 02:18:58;;;;;;;3.00;2.67;;;;;;;3.24;82.08;97763.19;4994397;28;20116;-76
2021/12/14 02:21:28;;;;;;;6.07;2.83;;;;;;;3.25;82.99;97762.25;4993888;28;20069;-77
2021/12/14 02:24:00;;;;;;;4.22;2.65;;;;;;;3.27;82.92;97760.41;4993266;28;20058;-77
2021/12/14 02:26:31;;;;;;;4.43;2.90;;;;;;;3.26;82.08;97763.09;4993051;28;20512;-76
2021/12/14 02:29:01;;;;;;;3.65;2.63;;;;;;;3.20;81.96;97774.66;4993546;28;20057;-76
2021/12/14 02:31:30;;;;;;;4.13;3.05;;;;;;;3.19;81.99;97777.34;4993674;28;20308;-76
2021/12/14 02:34:02;;;;;;;3.20;2.25;;;;;;;3.20;82.60;97784.16;4993002;28;20397;-76
2021/12/14 02:36:33;;;;;;;2.72;2.30;;;;;;;3.24;82.64;97780.44;4993425;28;20500;-77
2021/12/14 02:39:07;;;;;;;3.90;2.80;;;;;;;3.33;82.72;97784.13;4997084;28;20057;-76
2021/12/14 02:41:45;;;;;;;4.15;2.55;;;;;;;3.43;84.32;97774.78;4997024;28;20050;-76
2021/12/14 02:44:14;;;;;;;2.78;2.15;;;;;;;3.52;83.86;97763.84;4997363;28;20054;-76
2021/12/14 02:46:45;;;;;;;3.08;2.70;;;;;;;3.58;82.86;97763.38;4996409;28;20105;-76
2021/12/14 02:49:16;;;;;;;2.65;2.45;;;;;;;3.59;82.07;97761.66;4996957;28;20264;-76
2021/12/14 02:51:48;;;;;;;4.78;3.47;;;;;;;3.61;81.95;97764.94;4997337;28;20054;-76
2021/12/14 02:54:19;;;;;;;3.40;2.90;;;;;;;3.61;81.87;97752.88;4996830;28;20054;-76
2021/12/14 02:56:55;;;;;;;5.93;4.13;;;;;;;3.63;82.85;97763.91;4996112;28;20043;-75
2021/12/14 02:59:28;;;;;;;6.18;4.90;;;;;;;3.65;82.50;97764.63;4996733;28;20055;-76
2021/12/14 03:01:58;;;;;;;6.43;4.65;;;;;;;3.67;82.29;97756.75;4996739;28;20054;-77
2021/12/14 03:04:26;;;;;;;7.90;4.90;;;;;;;3.71;82.52;97764.16;4996885;28;20138;-75
2021/12/14 03:06:59;;;;;;;6.10;4.50;;;;;;;3.79;83.77;97755.88;5002566;28;20053;-76
2021/12/14 03:09:38;;;;;;;5.68;4.25;;;;;;;3.87;83.99;97758.72;5017869;28;20058;-75
2021/12/14 03:12:10;;;;;;;6.30;4.70;;;;;;;3.94;83.99;97748.78;5018307;28;20054;-75
2021/12/14 03:14:39;;;;;;;;;;;;;;;4.00;83.80;97750.06;5009908;28;20460;-77
2021/12/14 03:17:07;;;;;;;5.53;4.00;;;;;;;4.01;83.12;97749.97;4996535;28;20184;-76
2021/12/14 03:19:34;;;;;;;4.80;4.20;;;;;;;4.04;83.20;97748.91;4996587;28;20050;-77
2021/12/14 03:22:20;;;;;;;5.82;4.85;;;;;;;4.07;83.80;97746.94;4996047;28;20046;-76
2021/12/14 03:24:48;;;;;;;7.55;5.38;;;;;;;4.09;82.62;97746.84;4996076;28;20069;-76
2021/12/14 03:27:16;;;;;;;8.30;6.15;;;;;;;4.11;83.02;97753.53;4995804;28;20065;-76
2021/12/14 03:29:44;;;;;;;5.88;4.72;;;;;;;4.15;83.71;97750.72;4995517;28;20121;-76
2021/12/14 03:32:11;;;;;;;6.00;4.75;;;;;;;4.12;81.87;97751.78;4995955;28;20046;-76
2021/12/14 03:34:40;;;;;;;6.50;5.03;;;;;;;4.06;82.28;97753.03;4995627;28;20402;-76
2021/12/14 03:37:13;;;;;;;7.82;5.32;;;;;;;4.03;81.75;97755.84;4995771;28;20070;-76
2021/12/14 03:39:43;;;;;;;7.60;5.28;;;;;;;4.01;81.98;97765.47;4995757;28;20050;-77
2021/12/14 03:42:15;;;;;;;7.53;5.53;;;;;;;4.03;81.31;97770.53;4995717;28;20061;-76
2021/12/14 03:44:46;;;;;;;7.00;5.32;;;;;;;4.04;82.17;97769.56;4995567;28;20058;-76
2021/12/14 03:47:18;;;;;;;8.70;5.50;;;;;;;4.08;83.36;97771.81;4995241;28;20065;-75
2021/12/14 03:49:49;;;;;;;7.60;5.50;;;;;;;4.10;83.14;97775.13;4994612;28;20121;-76
2021/12/14 03:52:22;;;;;;;7.32;5.82;;;;;;;4.09;82.54;97768.31;4995664;28;20058;-76
2021/12/14 03:54:51;;;;;;;8.05;5.88;;;;;;;4.07;82.99;97762.44;4995243;28;20054;-77
2021/12/14 03:57:19;;;;;;;4.90;4.30;;;;;;;4.05;82.09;97746.25;4995211;28;20053;-76
2021/12/14 03:59:46;;;;;;;5.78;4.07;;;;;;;4.00;81.20;97745.75;4995581;28;20069;-76
2021/12/14 04:02:17;;;;;;;6.45;4.63;;;;;;;4.01;82.36;97744.00;4995693;28;20057;-76
2021/12/14 04:04:51;;;;;;;5.15;4.10;;;;;;;3.99;82.50;97741.50;4995331;28;20047;-76
2021/12/14 04:07:20;;;;;;;6.05;3.83;;;;;;;3.93;82.58;97741.97;4994936;28;20056;-75
2021/12/14 04:09:48;;;;;;;3.30;2.78;;;;;;;3.85;81.11;97739.13;4995375;28;20070;-75
2021/12/14 04:12:19;;;;;;;4.22;3.15;;;;;;;3.76;80.68;97742.34;4994920;28;20050;-76
2021/12/14 04:14:50;;;;;;;4.45;3.28;;;;;;;3.68;80.68;97748.91;4995412;28;20054;-77
2021/12/14 04:17:19;;;;;;;3.05;2.45;;;;;;;3.57;80.43;97741.13;4995165;28;20069;-77
2021/12/14 04:19:47;;;;;;;4.35;2.85;;;;;;;3.48;80.98;97736.63;4994681;28;20492;-76
2021/12/14 04:22:19;;;;;;;4.63;3.78;;;;;;;3.47;82.14;97742.69;4994881;28;20047;-76
2021/12/14 04:24:52;;;;;;;5.20;2.92;;;;;;;3.46;81.93;97748.81;4994775;28;20062;-76
2021/12/14 04:27:23;;;;;;;4.57;3.42;;;;;;;3.48;81.31;97744.34;4994653;28;20050;-75
2021/12/14 04:29:51;;;;;;;4.00;2.75;;;;;;;3.49;81.99;97751.16;4994784;28;20573;-76
2021/12/14 04:32:20;;;;;;;4.50;3.30;;;;;;;3.53;82.85;97750.00;4994726;28;20073;-76
2021/12/14 04:34:49;;;;;;;3.83;2.70;;;;;;;3.58;82.36;97758.22;4994343;28;20054;-77
2021/12/14 04:37:17;;;;;;;3.83;2.75;;;;;;;3.55;81.12;97757.63;4994481;28;20056;-77
2021/12/14 04:39:50;;;;;;;4.00;2.70;;;;;;;3.45;80.28;97747.13;4994774;28;20050;-76
2021/12/14 04:53:40;;;;;;;4.65;2.70;;;;;;;3.32;80.12;97748.94;4922337;28;20451;-75
2021/12/14 04:56:11;;;;;;;3.00;2.42;;;;;;;3.31;81.31;97753.28;4993760;28;20057;-76
2021/12/14 04:58:45;;;;;;;2.85;2.25;;;;;;;3.39;82.12;97747.56;4994343;28;20087;-76
2021/12/14 05:01:15;;;;;;;4.47;2.90;;;;;;;3.46;81.71;97743.63;4994510;28;20047;-76
2021/12/14 05:03:47;;;;;;;2.92;2.35;;;;;;;3.47;81.35;97734.97;4994160;28;20431;-76
2021/12/14 05:06:17;;;;;;;4.43;3.40;;;;;;;3.49;81.97;97730.50;4993759;28;20062;-77
2021/12/14 05:11:32;;;;;;;5.68;3.40;;;;;;;3.63;81.91;97720.03;4993933;28;20054;-76
2021/12/14 05:14:06;;;;;;;4.20;3.10;;;;;;;3.63;80.75;97720.03;4994134;28;20058;-76
2021/12/14 05:16:34;;;;;;;5.65;4.18;;;;;;;3.63;81.13;97714.03;4993586;28;20061;-76
2021/12/14 05:19:24;;;;;;;4.68;3.33;;;;;;;3.63;80.32;97714.88;4994820;28;20101;-76
2021/12/14 05:21:53;;;;;;;5.95;3.67;;;;;;;3.61;80.96;97711.59;4994695;28;20054;-76
2021/12/14 05:24:24;;;;;;;4.60;3.53;;;;;;;3.60;80.66;97709.09;4994173;28;20054;-76
2021/12/14 05:26:57;;;;;;;5.63;3.17;;;;;;;3.59;80.03;97713.44;4993728;28;20054;-76
2021/12/14 05:29:27;;;;;;;5.57;3.35;;;;;;;3.48;79.78;97701.31;4994239;28;20062;-76
2021/12/14 05:31:56;;;;;;;4.93;3.45;;;;;;;3.44;79.81;97709.38;4993859;28;20054;-76
2021/12/14 05:34:26;;;;;;;6.70;4.43;;;;;;;3.46;81.39;97716.09;4993734;28;20559;-76
2021/12/14 05:36:54;;;;;;;5.75;3.83;;;;;;;3.47;80.91;97691.09;4993622;28;20050;-76
2021/12/14 05:39:44;;;;;;;6.03;4.47;;;;;;;3.47;81.77;97704.81;4994039;28;20058;-77
2021/12/14 05:45:07;;;;;;;5.85;4.45;;;;;;;3.52;81.66;97701.94;4993566;28;20054;-77
2021/12/14 05:47:42;;;;;;;5.88;4.88;;;;;;;3.47;81.56;97704.00;4993494;28;20069;-76
2021/12/14 05:50:15;;;;;;;8.60;5.22;;;;;;;3.46;81.15;97713.50;4994068;28;20093;-76
2021/12/14 05:52:42;;;;;;;9.55;5.50;;;;;;;3.42;80.03;97716.41;4994472;28;20062;-77
2021/12/14 05:55:11;;;;;;;7.85;4.90;;;;;;;3.31;79.60;97722.34;4993759;28;20054;-77
2021/12/14 05:57:39;;;;;;;7.65;5.15;;;;;;;3.22;80.01;97726.38;4993551;28;20214;-77
2021/12/14 06:00:12;;;;;;;9.95;6.78;;;;;;;3.18;80.58;97730.09;4992840;28;20065;-77
2021/12/14 06:02:40;;;;;;;;;;;;;;;3.21;81.16;97727.28;4994425;28;20430;-79
2021/12/14 06:05:12;;;;;;;6.32;4.53;;;;;;;3.18;81.14;97724.94;4993621;28;19925;-77
2021/12/14 06:07:40;;;;;;;7.20;4.30;;;;;;;3.20;80.86;97723.09;4993328;28;20424;-77
2021/12/14 06:10:10;;;;;;;4.68;3.67;;;;;;;3.19;81.20;97729.19;4993656;28;20054;-76
2021/12/14 06:12:42;;;;;;;5.43;3.58;;;;;;;3.25;81.39;97739.03;4992575;28;20053;-76
2021/12/14 06:15:17;;;;;;;5.80;3.73;;;;;;;3.32;82.31;97734.28;4993456;28;20057;-76
2021/12/14 06:17:44;;;;;;;6.03;4.50;;;;;;;3.36;81.82;97719.41;4993553;28;20275;-76
2021/12/14 06:20:15;;;;;;;7.03;4.68;;;;;;;3.32;81.74;97716.22;4993205;28;20058;-76
2021/12/14 06:22:43;;;;;;;5.45;3.65;;;;;;;3.30;81.63;97729.25;4993393;28;20053;-76
2021/12/14 06:25:14;;;;;;;5.28;3.58;;;;;;;3.29;80.74;97734.50;4992908;28;20057;-76
2021/12/14 06:27:43;;;;;;;6.28;4.00;;;;;;;3.27;81.07;97732.03;4992801;28;20658;-77
2021/12/14 06:30:16;;;;;;;7.53;4.38;;;;;;;3.27;82.27;97746.69;4992263;28;20081;-77
2021/12/14 06:32:46;;;;;;;5.55;3.67;;;;;;;3.27;82.39;97744.09;4982644;28;20042;-77
2021/12/14 06:35:18;;;;;;;4.97;3.53;;;;;;;3.24;81.55;97739.19;4982619;28;20415;-77
2021/12/14 06:40:57;;;;;;;8.85;6.05;;;;;;;3.24;82.79;97714.22;4979524;28;20062;-77
2021/12/14 06:43:28;;;;;;;7.60;5.43;;;;;;;3.22;82.87;97716.06;4980281;28;20409;-77
2021/12/14 06:45:59;;;;;;;8.40;5.90;;;;;;;3.24;82.62;97723.69;4991781;28;20058;-77
2021/12/14 06:48:34;;;;;;;13.85;9.20;;;;;;;3.26;82.83;97712.34;4992669;28;20050;-77
2021/12/14 06:51:08;;;;;;;14.18;9.48;;;;;;;3.20;81.24;97712.78;4985792;28;20057;-77
2021/12/14 06:53:39;;;;;;;14.60;9.57;;;;;;;3.08;80.44;97714.47;4993180;28;20085;-77
2021/12/14 06:56:09;;;;;;;12.07;8.25;;;;;;;2.92;80.96;97703.56;4992591;28;20050;-75
2021/12/14 06:58:47;;;;;;;12.35;9.35;;;;;;;2.85;81.26;97682.56;4992871;28;20454;-77
2021/12/14 07:01:20;;;;;;;13.95;9.98;;;;;;;2.77;82.13;97689.16;4993225;28;20054;-76
2021/12/14 07:03:51;;;;;;;15.13;10.57;;;;;;;2.75;82.81;97699.56;4990248;28;20137;-76
2021/12/14 07:06:26;;;;;;;9.20;5.88;;;;;;;2.70;81.45;97699.06;5007219;28;20518;-76
2021/12/14 07:08:56;;;;;;;7.90;5.47;;;;;;;2.66;81.53;97707.94;4988994;28;20058;-76
2021/12/14 07:11:26;;;;;;;7.25;4.65;;;;;;;2.62;82.01;97701.34;4992664;28;20134;-76
2021/12/14 07:13:55;;;;;;;6.70;4.95;;;;;;;2.63;82.29;97696.09;4993704;28;20054;-76
2021/12/14 07:16:30;;;;;;;7.65;4.70;;;;;;;2.62;82.34;97697.03;4992967;28;20419;-75
2021/12/14 07:19:01;;;;;;;6.72;4.50;;;;;;;2.61;81.62;97682.50;4986910;28;20586;-77
2021/12/14 07:21:39;;;;;;;6.68;4.60;;;;;;;2.63;81.21;97679.81;4991938;28;20054;-75
2021/12/14 07:24:35;;;;;;;7.60;5.00;;;;;;;2.66;83.23;97688.16;4994732;28;20050;-75
2021/12/14 07:27:18;;;;;;;5.78;4.57;;;;;;;2.71;83.64;97679.28;4951512;28;20050;-76
2021/12/14 07:29:46;;;;;;;;;;;;;;;2.75;83.36;97681.53;4997011;28;20051;-75
2021/12/14 07:32:15;;;;;;;8.27;5.80;;;;;;;2.71;81.82;97669.78;5005259;28;19925;-75
2021/12/14 07:34:42;;;;;;;8.23;5.05;;;;;;;2.72;81.80;97668.06;4995544;28;20463;-75
2021/12/14 07:37:10;;;;;;;7.20;5.15;;;;;;;2.73;82.04;97661.97;4995701;28;20058;-76
2021/12/14 07:39:37;;;;;;;8.23;5.20;;;;;;;2.71;81.62;97649.19;4996190;28;20057;-75
2021/12/14 07:42:05;;;;;;;8.90;5.60;;;;;;;2.69;81.83;97661.38;4998486;28;20054;-74
2021/12/14 07:44:36;;;;;;;7.38;4.80;;;;;;;2.68;81.40;97657.94;5017647;28;20041;-75
2021/12/14 07:47:07;;;;;;;6.65;4.65;;;;;;;2.71;81.93;97656.91;5018434;28;20046;-74
2021/12/14 07:49:41;;;;;;;6.07;4.57;;;;;;;2.73;81.31;97647.31;5016158;28;20133;-76
2021/12/14 07:52:15;;;;;;;5.18;3.25;;;;;;;2.74;80.67;97656.72;5015500;28;20114;-75
2021/12/14 07:54:46;;;;;;;3.42;2.65;;;;;;;2.77;80.92;97648.75;5016209;28;20050;-75
2021/12/14 07:57:17;;;;;;;3.92;2.88;;;;;;;2.81;81.63;97650.19;5014704;28;20052;-75
2021/12/14 07:59:48;;;;;;;3.05;2.35;;;;;;;2.84;81.33;97644.84;5015761;28;20056;-75
2021/12/14 08:02:18;;;;;;;3.38;2.70;;;;;;;2.86;81.32;97642.97;5015487;28;20145;-76
2021/12/14 08:04:51;;;;;;;3.15;2.47;;;;;;;2.88;81.15;97655.75;5015351;28;20041;-76
2021/12/14 08:07:24;;;;;;;;;;;;;;;2.91;81.01;97670.16;5015204;28;20108;-75
2021/12/14 08:09:53;;;;;;;3.58;2.88;;;;;;;2.92;81.42;97667.47;5014741;28;19925;-75
2021/12/14 08:12:38;;;;;;;4.28;3.15;;;;;;;2.97;80.81;97672.31;5013853;28;20053;-75
2021/12/14 08:15:14;;;;;;;8.02;4.13;;;;;;;3.02;81.00;97680.56;5014534;28;20045;-76
2021/12/14 08:17:43;;;;;;;6.95;4.72;;;;;;;3.10;80.63;97685.97;5014374;28;20046;-76
2021/12/14 08:20:15;;;;;;;6.90;4.10;;;;;;;3.13;79.91;97680.63;5014550;28;20622;-75
2021/12/14 08:22:56;;;;;;;7.30;4.57;;;;;;;3.18;80.16;97688.03;5014376;28;20132;-75
2021/12/14 08:25:26;;;;;;;6.53;4.60;;;;;;;3.24;79.78;97691.00;5014610;28;20413;-75
2021/12/14 08:28:01;;;;;;;9.10;5.05;;;;;;;3.33;80.03;97699.03;5014130;28;20050;-75
2021/12/14 08:30:31;;;;;;;8.43;5.20;;;;;;;3.43;79.71;97693.09;5014350;28;20060;-75
2021/12/14 08:32:59;;;;;;;6.82;4.60;;;;;;;3.56;80.19;97695.59;5014175;28;20054;-74
2021/12/14 08:35:28;;;;;;;7.47;5.35;;;;;;;3.67;80.93;97702.56;5013389;28;20049;-76
2021/12/14 08:38:02;;;;;;;6.60;4.32;;;;;;;3.78;80.50;97699.19;5014101;28;20431;-76
2021/12/14 08:40:35;;;;;;;8.73;4.55;;;;;;;3.86;79.70;97684.78;5014267;28;20058;-76
2021/12/14 08:43:12;;;;;;;7.38;4.28;;;;;;;3.94;80.34;97697.16;4996103;28;20496;-75
2021/12/14 08:45:43;;;;;;;6.18;4.28;;;;;;;3.97;79.56;97702.06;4994337;28;20057;-75
2021/12/14 08:48:15;;;;;;;8.90;4.63;;;;;;;4.01;79.14;97698.34;4994091;28;20060;-76
2021/12/14 08:50:48;;;;;;;6.07;4.82;;;;;;;4.08;80.24;97709.84;4994749;28;20077;-75
2021/12/14 08:53:17;;;;;;;6.35;4.82;;;;;;;4.19;80.40;97723.72;4993516;28;20054;-75
2021/12/14 08:55:49;;;;;;;8.73;4.85;;;;;;;4.25;80.18;97721.50;5012351;28;20507;-76
2021/12/14 08:58:17;;;;;;;6.40;4.32;;;;;;;4.30;79.93;97729.72;4997624;28;20050;-76
2021/12/14 09:00:48;;;;;;;4.88;3.90;;;;;;;4.31;78.60;97723.66;4994349;28;20061;-76
2021/12/14 09:03:23;;;;;;;7.07;3.88;;;;;;;4.26;77.39;97730.94;4994069;28;20042;-76
2021/12/14 09:05:53;;;;;;;8.35;4.25;;;;;;;4.24;78.56;97732.81;4993904;28;20066;-74
2021/12/14 09:08:22;;;;;;;7.57;4.10;;;;;;;4.31;78.49;97746.06;4987131;28;20114;-75
2021/12/14 09:10:54;;;;;;;6.70;4.18;;;;;;;4.44;78.54;97741.63;4983859;28;20057;-76
2021/12/14 09:13:21;;;;;;;8.80;5.38;;;;;;;4.62;78.29;97741.19;4994174;28;20473;-75
2021/12/14 09:15:52;;;;;;;8.35;5.88;;;;;;;4.81;78.73;97736.28;4984605;28;20055;-75
2021/12/14 09:18:21;;;;;;;9.82;5.50;;;;;;;4.98;77.05;97734.13;4986530;28;20105;-75
2021/12/14 09:20:55;;;;;;;9.35;5.00;;;;;;;5.09;75.88;97737.53;4994220;28;20061;-76
2021/12/14 09:23:25;;;;;;;12.20;5.88;;;;;;;5.24;77.81;97737.28;4994212;28;20050;-76
2021/12/14 09:25:54;;;;;;;7.45;5.13;;;;;;;5.33;77.69;97718.44;4993919;28;20050;-76
2021/12/14 09:28:22;;;;;;;10.55;5.75;;;;;;;5.36;76.45;97723.38;4993725;28;20073;-74
2021/12/14 09:30:54;;;;;;;9.00;5.30;;;;;;;5.36;77.13;97733.75;4993992;28;20057;-76
2021/12/14 09:33:22;;;;;;;5.97;4.85;;;;;;;5.35;76.13;97727.72;4992849;28;20578;-75
2021/12/14 09:35:50;;;;;;;8.20;5.53;;;;;;;5.39;76.95;97728.31;4993243;28;20062;-77
2021/12/14 09:38:20;;;;;;;8.45;5.07;;;;;;;5.50;77.87;97733.44;4994253;28;20058;-76
2021/12/14 09:40:51;;;;;;;6.78;4.97;;;;;;;5.70;77.89;97742.22;4994227;28;20057;-76
2021/12/14 09:43:20;;;;;;;8.43;4.93;;;;;;;5.85;76.22;97731.59;4993799;28;20050;-76
2021/12/14 09:45:52;;;;;;;12.07;6.20;;;;;;;5.94;74.94;97738.59;4993116;28;20051;-76
2021/12/14 09:48:23;;;;;;;7.63;5.00;;;;;;;6.00;74.06;97732.97;4993340;28;20140;-76
2021/12/14 09:50:51;;;;;;;7.43;5.28;;;;;;;6.03;74.69;97716.34;4993698;28;20424;-75
2021/12/14 09:53:24;;;;;;;7.60;6.20;;;;;;;6.08;75.80;97725.38;4994007;28;20065;-76
2021/12/14 09:55:53;;;;;;;7.80;5.18;;;;;;;6.15;76.02;97730.88;4993480;28;20065;-76
2021/12/14 09:58:26;;;;;;;8.63;5.35;;;;;;;6.17;75.43;97719.44;4993764;28;20113;-76
2021/12/14 10:00:57;;;;;;;8.20;5.15;;;;;;;6.18;73.85;97715.06;4993714;28;20050;-76
2021/12/14 10:03:27;;;;;;;8.88;5.53;;;;;;;6.18;75.21;97722.84;4994297;28;20042;-75
2021/12/14 10:05:57;;;;;;;10.15;6.18;;;;;;;6.18;76.10;97726.25;4993019;28;20046;-76
2021/12/14 10:08:30;;;;;;;11.23;6.70;;;;;;;6.16;74.01;97717.78;4993363;28;20061;-75
2021/12/14 10:11:04;;;;;;;7.72;6.10;;;;;;;6.15;75.65;97716.16;4993696;28;20133;-76
2021/12/14 10:13:36;;;;;;;9.73;6.40;;;;;;;6.23;76.52;97720.72;4993915;28;20046;-76
2021/12/14 10:16:09;;;;;;;9.30;6.30;;;;;;;6.30;74.55;97715.84;4993426;28;20057;-76
2021/12/14 10:18:41;;;;;;;12.05;7.40;;;;;;;6.34;74.74;97712.88;4993987;28;20355;-77
2021/12/14 10:21:12;;;;;;;12.73;8.00;;;;;;;6.40;75.99;97703.75;4993963;28;20436;-77
2021/12/14 10:23:42;;;;;;;11.63;8.60;;;;;;;6.47;76.03;97706.66;4993660;28;20416;-76
2021/12/14 10:26:14;;;;;;;12.80;7.53;;;;;;;6.49;75.73;97705.56;4999182;28;20145;-76
2021/12/14 10:28:46;;;;;;;10.50;7.75;;;;;;;6.50;76.26;97712.41;5012054;28;20491;-77
2021/12/14 10:31:21;;;;;;;19.30;8.77;;;;;;;6.50;75.85;97704.63;5014219;28;20420;-78
2021/12/14 10:33:48;;;;;;;21.27;8.88;;;;;;;6.49;75.68;97710.75;5014837;28;20054;-80
2021/12/14 10:36:26;;;;;;;16.77;8.80;;;;;;;6.47;74.13;97699.72;5023099;22;20046;-78
2021/12/14 10:39:07;;;;;;;11.02;7.93;;;;;;;6.49;75.71;97708.16;4992902;28;20062;-78
2021/12/14 10:44:23;;;;;;;13.05;7.55;;;;;;;6.46;73.33;97707.63;4992454;28;20057;-76
2021/12/14 10:46:53;;;;;;;11.25;8.43;;;;;;;6.41;73.99;97708.00;4992243;28;20066;-76
2021/12/14 10:49:23;;;;;;;9.93;5.65;;;;;;;6.39;73.54;97702.13;4992580;28;20061;-76
2021/12/14 10:51:54;;;;;;;11.15;6.07;;;;;;;6.34;72.97;97704.25;4992184;28;20061;-77
2021/12/14 10:54:24;;;;;;;7.75;6.22;;;;;;;6.35;74.91;97705.91;4992156;28;20061;-77
2021/12/14 10:56:55;;;;;;;9.40;6.47;;;;;;;6.45;75.31;97693.84;4992189;28;20057;-76
2021/12/14 10:59:31;;;;;;;9.82;6.60;;;;;;;6.48;74.93;97696.16;4996252;28;20065;-77
2021/12/14 11:01:58;;;;;;;7.88;5.82;;;;;;;6.45;73.46;97696.44;4994555;28;20508;-76
2021/12/14 11:04:37;;;;;;;7.88;5.57;;;;;;;6.42;73.15;97695.84;4995343;28;20446;-76
2021/12/14 11:07:07;;;;;;;7.38;4.90;;;;;;;6.49;72.98;97702.97;4995549;28;20050;-76
2021/12/14 11:09:42;;;;;;;8.48;5.32;;;;;;;6.65;72.38;97686.97;4995971;28;20051;-76
2021/12/14 11:12:17;;;;;;;6.40;5.28;;;;;;;6.85;73.37;97682.66;4995914;28;20133;-76
2021/12/14 11:14:46;;;;;;;8.32;5.22;;;;;;;6.93;72.51;97693.22;4995377;28;20492;-76
2021/12/14 11:20:07;;;;;;;13.23;4.60;;;;;;;7.08;72.47;97692.81;4995248;28;20061;-76
2021/12/14 11:22:47;;;;;;;5.15;4.18;;;;;;;7.18;71.32;97688.50;4995681;28;20050;-76
2021/12/14 11:25:40;;;;;;;5.65;4.10;;;;;;;7.29;71.49;97685.78;4995952;28;20413;-76
2021/12/14 11:28:11;;;;;;;6.45;4.45;;;;;;;7.39;70.85;97697.00;4995428;28;20058;-76
2021/12/14 11:30:44;;;;;;;5.95;4.43;;;;;;;7.49;70.09;97693.59;4995915;28;20512;-76
2021/12/14 11:33:16;;;;;;;5.10;4.07;;;;;;;7.68;70.49;97687.59;4995824;28;20534;-76
2021/12/14 11:35:47;;;;;;;5.38;3.83;;;;;;;7.88;71.33;97691.00;4995329;28;20057;-76
2021/12/14 11:38:26;;;;;;;5.07;4.30;;;;;;;7.99;70.90;97688.25;4995510;28;20077;-76
2021/12/14 11:40:57;;;;;;;5.53;4.32;;;;;;;8.06;69.44;97684.13;4995237;28;20054;-76
2021/12/14 11:43:28;;;;;;;6.20;4.07;;;;;;;8.14;69.65;97676.47;4995457;28;20065;-76
2021/12/14 11:45:56;;;;;;;4.55;3.85;;;;;;;8.32;70.44;97673.16;4994964;28;20054;-77
2021/12/14 11:48:31;;;;;;;6.15;4.13;;;;;;;8.50;69.73;97666.28;4995157;28;20066;-76
2021/12/14 11:51:00;;;;;;;4.80;4.10;;;;;;;8.65;68.75;97664.03;4995392;28;20050;-77
2021/12/14 11:53:28;;;;;;;5.47;4.35;;;;;;;8.79;68.95;97660.13;4995054;28;20500;-76
2021/12/14 11:56:00;;;;;;;5.90;4.03;;;;;;;8.87;68.83;97655.84;4994448;28;20047;-76
2021/12/14 11:58:33;;;;;;;6.53;4.57;;;;;;;8.97;68.66;97655.81;4994844;28;20050;-76
2021/12/14 12:01:07;;;;;;;9.13;4.30;;;;;;;9.06;67.75;97654.94;4994973;28;20066;-76
2021/12/14 12:03:41;;;;;;;23.08;4.82;;;;;;;9.17;68.68;97668.72;4995097;28;20511;-76
2021/12/14 12:06:31;;;;;;;23.25;6.30;;;;;;;9.30;68.31;97669.16;4994383;28;20057;-76
2021/12/14 12:12:01;;;;;;;4.82;3.80;;;;;;;10.21;66.26;97657.69;4970628;28;20050;-76
2021/12/14 12:14:32;;;;;;;5.93;3.50;;;;;;;10.89;64.64;97667.41;4993786;28;20054;-76
2021/12/14 12:17:16;;;;;;;4.07;3.42;;;;;;;11.41;62.66;97663.75;4974770;28;20050;-76
2021/12/14 12:19:53;;;;;;;5.65;4.32;;;;;;;11.53;60.17;97665.91;4975574;28;20055;-74
2021/12/14 12:22:21;;;;;;;5.22;4.35;;;;;;;11.60;61.42;97660.03;4975628;28;20058;-74
2021/12/14 12:24:52;;;;;;;10.30;6.28;;;;;;;11.63;60.90;97660.56;4980943;28;20071;-75
2021/12/14 12:27:29;;;;;;;8.13;5.60;;;;;;;11.49;61.45;97648.91;5001470;28;20058;-76
2021/12/14 12:30:30;;;;;;;13.77;8.07;;;;;;;11.18;62.44;97659.16;5007208;28;20134;-76
2021/12/14 12:33:01;;;;;;;8.50;6.57;;;;;;;10.91;63.62;97665.41;4995542;28;20046;-76
2021/12/14 12:35:33;;;;;;;6.05;4.38;;;;;;;10.65;64.06;97674.13;4994572;28;20397;-75
2021/12/14 12:38:25;;;;;;;6.78;5.35;;;;;;;10.35;64.41;97669.41;5005252;28;20050;-75
2021/12/14 12:40:56;;;;;;;6.53;5.22;;;;;;;10.12;65.26;97680.28;5001987;28;20069;-75